sensor_id;sensor_type;location;lat;lon;timestamp;P1;durP1;ratioP1;P2;durP2;ratioP2
14698;SDS011;7439;50.804;4.602;2023-08-12T00:01:27;5.67;;;3.87;;
14698;SDS011;7439;50.804;4.602;2023-08-12T00:03:55;3.93;;;3.63;;
14698;SDS011;7439;50.804;4.602;2023-08-12T00:06:22;4.50;;;3.63;;
14698;SDS011;7439;50.804;4.602;2023-08-12T00:08:50;3.87;;;3.57;;
14698;SDS011;7439;50.804;4.602;2023-08-12T00:11:17;3.67;;;3.20;;
14698;SDS011;7439;50.804;4.602;2023-08-12T00:13:46;3.73;;;3.43;;
14698;SDS011;7439;50.804;4.602;2023-08-12T00:16:13;4.23;;;3.30;;
14698;SDS011;7439;50.804;4.602;2023-08-12T00:18:40;3.20;;;2.93;;
14698;SDS011;7439;50.804;4.602;2023-08-12T00:21:08;5.57;;;3.33;;
14698;SDS011;7439;50.804;4.602;2023-08-12T00:23:38;3.30;;;3.00;;
14698;SDS011;7439;50.804;4.602;2023-08-12T00:26:05;3.30;;;3.00;;
14698;SDS011;7439;50.804;4.602;2023-08-12T00:28:33;3.90;;;3.00;;
14698;SDS011;7439;50.804;4.602;2023-08-12T00:31:01;3.57;;;2.80;;
14698;SDS011;7439;50.804;4.602;2023-08-12T00:33:29;3.00;;;2.80;;
14698;SDS011;7439;50.804;4.602;2023-08-12T00:35:56;4.57;;;3.40;;
14698;SDS011;7439;50.804;4.602;2023-08-12T00:38:24;3.00;;;2.70;;
14698;SDS011;7439;50.804;4.602;2023-08-12T00:40:51;3.43;;;3.07;;
14698;SDS011;7439;50.804;4.602;2023-08-12T00:43:19;3.70;;;3.27;;
14698;SDS011;7439;50.804;4.602;2023-08-12T00:45:46;3.43;;;2.67;;
14698;SDS011;7439;50.804;4.602;2023-08-12T00:48:15;4.50;;;3.60;;
14698;SDS011;7439;50.804;4.602;2023-08-12T00:50:44;3.33;;;3.03;;
14698;SDS011;7439;50.804;4.602;2023-08-12T00:53:12;3.10;;;2.80;;
14698;SDS011;7439;50.804;4.602;2023-08-12T00:55:40;3.37;;;2.97;;
14698;SDS011;7439;50.804;4.602;2023-08-12T00:58:08;3.00;;;2.73;;
14698;SDS011;7439;50.804;4.602;2023-08-12T01:00:35;2.93;;;2.50;;
14698;SDS011;7439;50.804;4.602;2023-08-12T01:03:03;3.63;;;3.00;;
14698;SDS011;7439;50.804;4.602;2023-08-12T01:05:32;3.43;;;2.83;;
14698;SDS011;7439;50.804;4.602;2023-08-12T01:08:00;3.40;;;2.90;;
14698;SDS011;7439;50.804;4.602;2023-08-12T01:10:28;2.60;;;2.40;;
14698;SDS011;7439;50.804;4.602;2023-08-12T01:13:05;3.13;;;2.80;;
14698;SDS011;7439;50.804;4.602;2023-08-12T01:15:34;3.97;;;3.50;;
14698;SDS011;7439;50.804;4.602;2023-08-12T01:18:04;3.17;;;2.87;;
14698;SDS011;7439;50.804;4.602;2023-08-12T01:20:33;2.80;;;2.60;;
14698;SDS011;7439;50.804;4.602;2023-08-12T01:23:08;4.07;;;2.70;;
14698;SDS011;7439;50.804;4.602;2023-08-12T01:25:36;3.13;;;2.87;;
14698;SDS011;7439;50.804;4.602;2023-08-12T01:28:03;3.73;;;2.83;;
14698;SDS011;7439;50.804;4.602;2023-08-12T01:30:31;3.27;;;2.93;;
14698;SDS011;7439;50.804;4.602;2023-08-12T01:33:01;3.23;;;2.97;;
14698;SDS011;7439;50.804;4.602;2023-08-12T01:35:32;4.90;;;2.93;;
14698;SDS011;7439;50.804;4.602;2023-08-12T01:38:01;3.10;;;2.80;;
14698;SDS011;7439;50.804;4.602;2023-08-12T01:40:31;7.90;;;4.63;;
14698;SDS011;7439;50.804;4.602;2023-08-12T01:42:58;3.47;;;3.03;;
14698;SDS011;7439;50.804;4.602;2023-08-12T01:45:26;5.10;;;2.60;;
14698;SDS011;7439;50.804;4.602;2023-08-12T01:47:54;4.23;;;2.70;;
14698;SDS011;7439;50.804;4.602;2023-08-12T01:50:21;4.53;;;3.13;;
14698;SDS011;7439;50.804;4.602;2023-08-12T01:52:49;5.00;;;3.10;;
14698;SDS011;7439;50.804;4.602;2023-08-12T01:55:16;3.00;;;2.70;;
14698;SDS011;7439;50.804;4.602;2023-08-12T01:57:45;5.30;;;2.90;;
14698;SDS011;7439;50.804;4.602;2023-08-12T02:00:12;3.57;;;3.10;;
14698;SDS011;7439;50.804;4.602;2023-08-12T02:02:40;3.27;;;3.03;;
14698;SDS011;7439;50.804;4.602;2023-08-12T02:05:08;3.27;;;2.97;;
14698;SDS011;7439;50.804;4.602;2023-08-12T02:07:35;4.50;;;2.67;;
14698;SDS011;7439;50.804;4.602;2023-08-12T02:10:02;3.30;;;2.80;;
14698;SDS011;7439;50.804;4.602;2023-08-12T02:12:30;3.17;;;2.87;;
14698;SDS011;7439;50.804;4.602;2023-08-12T02:14:59;3.73;;;2.70;;
14698;SDS011;7439;50.804;4.602;2023-08-12T02:17:26;3.57;;;3.17;;
14698;SDS011;7439;50.804;4.602;2023-08-12T02:19:53;2.70;;;2.50;;
14698;SDS011;7439;50.804;4.602;2023-08-12T02:22:22;2.50;;;2.30;;
14698;SDS011;7439;50.804;4.602;2023-08-12T02:24:53;2.90;;;2.50;;
14698;SDS011;7439;50.804;4.602;2023-08-12T02:27:21;4.13;;;3.23;;
14698;SDS011;7439;50.804;4.602;2023-08-12T02:29:48;3.60;;;2.80;;
14698;SDS011;7439;50.804;4.602;2023-08-12T02:32:17;2.87;;;2.27;;
14698;SDS011;7439;50.804;4.602;2023-08-12T02:34:44;3.80;;;2.30;;
14698;SDS011;7439;50.804;4.602;2023-08-12T02:37:12;2.90;;;2.60;;
14698;SDS011;7439;50.804;4.602;2023-08-12T02:39:39;2.90;;;2.50;;
14698;SDS011;7439;50.804;4.602;2023-08-12T02:42:07;2.27;;;2.07;;
14698;SDS011;7439;50.804;4.602;2023-08-12T02:44:34;2.47;;;2.27;;
14698;SDS011;7439;50.804;4.602;2023-08-12T02:47:00;2.47;;;2.10;;
14698;SDS011;7439;50.804;4.602;2023-08-12T02:49:29;2.50;;;2.30;;
14698;SDS011;7439;50.804;4.602;2023-08-12T02:51:57;4.97;;;2.30;;
14698;SDS011;7439;50.804;4.602;2023-08-12T02:54:24;2.97;;;2.40;;
14698;SDS011;7439;50.804;4.602;2023-08-12T02:56:51;2.37;;;2.17;;
14698;SDS011;7439;50.804;4.602;2023-08-12T02:59:19;2.13;;;1.93;;
14698;SDS011;7439;50.804;4.602;2023-08-12T03:01:47;2.33;;;1.90;;
14698;SDS011;7439;50.804;4.602;2023-08-12T03:04:14;2.37;;;2.17;;
14698;SDS011;7439;50.804;4.602;2023-08-12T03:06:43;3.97;;;2.40;;
14698;SDS011;7439;50.804;4.602;2023-08-12T03:09:10;2.30;;;2.10;;
14698;SDS011;7439;50.804;4.602;2023-08-12T03:11:37;2.40;;;2.20;;
14698;SDS011;7439;50.804;4.602;2023-08-12T03:14:05;2.10;;;2.00;;
14698;SDS011;7439;50.804;4.602;2023-08-12T03:16:32;3.03;;;2.73;;
14698;SDS011;7439;50.804;4.602;2023-08-12T03:19:00;2.40;;;2.20;;
14698;SDS011;7439;50.804;4.602;2023-08-12T03:21:27;3.70;;;2.70;;
14698;SDS011;7439;50.804;4.602;2023-08-12T03:23:56;3.23;;;2.60;;
14698;SDS011;7439;50.804;4.602;2023-08-12T03:26:24;4.03;;;3.07;;
14698;SDS011;7439;50.804;4.602;2023-08-12T03:28:51;4.07;;;3.00;;
14698;SDS011;7439;50.804;4.602;2023-08-12T03:31:18;3.33;;;2.87;;
14698;SDS011;7439;50.804;4.602;2023-08-12T03:33:46;2.90;;;2.47;;
14698;SDS011;7439;50.804;4.602;2023-08-12T03:36:13;2.63;;;2.40;;
14698;SDS011;7439;50.804;4.602;2023-08-12T03:38:40;2.67;;;2.47;;
14698;SDS011;7439;50.804;4.602;2023-08-12T03:41:10;1.87;;;1.77;;
14698;SDS011;7439;50.804;4.602;2023-08-12T03:43:37;2.53;;;1.70;;
14698;SDS011;7439;50.804;4.602;2023-08-12T03:46:04;1.80;;;1.70;;
14698;SDS011;7439;50.804;4.602;2023-08-12T03:48:32;2.00;;;1.80;;
14698;SDS011;7439;50.804;4.602;2023-08-12T03:50:59;2.73;;;2.30;;
14698;SDS011;7439;50.804;4.602;2023-08-12T03:53:27;2.30;;;2.10;;
14698;SDS011;7439;50.804;4.602;2023-08-12T03:55:54;2.50;;;2.30;;
14698;SDS011;7439;50.804;4.602;2023-08-12T03:58:23;2.20;;;2.10;;
14698;SDS011;7439;50.804;4.602;2023-08-12T04:00:51;1.60;;;1.50;;
14698;SDS011;7439;50.804;4.602;2023-08-12T04:03:18;2.20;;;1.80;;
14698;SDS011;7439;50.804;4.602;2023-08-12T04:05:49;1.90;;;1.80;;
14698;SDS011;7439;50.804;4.602;2023-08-12T04:08:17;1.77;;;1.67;;
14698;SDS011;7439;50.804;4.602;2023-08-12T04:10:45;2.07;;;1.90;;
14698;SDS011;7439;50.804;4.602;2023-08-12T04:13:14;2.23;;;1.60;;
14698;SDS011;7439;50.804;4.602;2023-08-12T04:15:47;1.77;;;1.67;;
14698;SDS011;7439;50.804;4.602;2023-08-12T04:18:15;1.83;;;1.70;;
14698;SDS011;7439;50.804;4.602;2023-08-12T04:20:42;1.87;;;1.77;;
14698;SDS011;7439;50.804;4.602;2023-08-12T04:23:12;1.73;;;1.63;;
14698;SDS011;7439;50.804;4.602;2023-08-12T04:25:39;1.70;;;1.60;;
14698;SDS011;7439;50.804;4.602;2023-08-12T04:28:07;1.70;;;1.57;;
14698;SDS011;7439;50.804;4.602;2023-08-12T04:30:35;1.57;;;1.47;;
14698;SDS011;7439;50.804;4.602;2023-08-12T04:33:06;1.47;;;1.37;;
14698;SDS011;7439;50.804;4.602;2023-08-12T04:35:34;1.60;;;1.50;;
14698;SDS011;7439;50.804;4.602;2023-08-12T04:38:01;1.50;;;1.40;;
14698;SDS011;7439;50.804;4.602;2023-08-12T04:40:29;1.40;;;1.30;;
14698;SDS011;7439;50.804;4.602;2023-08-12T04:42:57;1.57;;;1.47;;
14698;SDS011;7439;50.804;4.602;2023-08-12T04:45:25;1.20;;;1.10;;
14698;SDS011;7439;50.804;4.602;2023-08-12T04:47:52;1.67;;;1.57;;
14698;SDS011;7439;50.804;4.602;2023-08-12T04:50:21;2.50;;;1.50;;
14698;SDS011;7439;50.804;4.602;2023-08-12T04:52:49;1.60;;;1.50;;
14698;SDS011;7439;50.804;4.602;2023-08-12T04:55:16;3.80;;;1.60;;
14698;SDS011;7439;50.804;4.602;2023-08-12T04:57:44;2.03;;;1.83;;
14698;SDS011;7439;50.804;4.602;2023-08-12T05:00:11;1.70;;;1.60;;
14698;SDS011;7439;50.804;4.602;2023-08-12T05:02:39;1.90;;;1.80;;
14698;SDS011;7439;50.804;4.602;2023-08-12T05:05:07;1.60;;;1.50;;
14698;SDS011;7439;50.804;4.602;2023-08-12T05:07:36;2.13;;;1.60;;
14698;SDS011;7439;50.804;4.602;2023-08-12T05:10:04;2.13;;;1.93;;
14698;SDS011;7439;50.804;4.602;2023-08-12T05:12:32;2.53;;;2.03;;
14698;SDS011;7439;50.804;4.602;2023-08-12T05:14:59;1.30;;;1.20;;
14698;SDS011;7439;50.804;4.602;2023-08-12T05:17:27;1.10;;;1.10;;
14698;SDS011;7439;50.804;4.602;2023-08-12T05:19:55;1.10;;;1.10;;
14698;SDS011;7439;50.804;4.602;2023-08-12T05:22:22;1.00;;;1.00;;
14698;SDS011;7439;50.804;4.602;2023-08-12T05:24:51;1.00;;;1.00;;
14698;SDS011;7439;50.804;4.602;2023-08-12T05:27:18;1.40;;;1.30;;
14698;SDS011;7439;50.804;4.602;2023-08-12T05:29:46;0.90;;;0.90;;
14698;SDS011;7439;50.804;4.602;2023-08-12T05:32:13;1.00;;;1.00;;
14698;SDS011;7439;50.804;4.602;2023-08-12T05:34:41;1.00;;;1.00;;
14698;SDS011;7439;50.804;4.602;2023-08-12T05:37:08;0.90;;;0.90;;
14698;SDS011;7439;50.804;4.602;2023-08-12T05:39:36;0.73;;;0.73;;
14698;SDS011;7439;50.804;4.602;2023-08-12T05:42:05;1.07;;;0.90;;
14698;SDS011;7439;50.804;4.602;2023-08-12T05:44:32;0.97;;;0.90;;
14698;SDS011;7439;50.804;4.602;2023-08-12T05:47:00;0.70;;;0.70;;
14698;SDS011;7439;50.804;4.602;2023-08-12T05:49:28;0.87;;;0.87;;
14698;SDS011;7439;50.804;4.602;2023-08-12T05:51:55;0.90;;;0.90;;
14698;SDS011;7439;50.804;4.602;2023-08-12T05:54:23;5.10;;;1.10;;
14698;SDS011;7439;50.804;4.602;2023-08-12T05:56:50;0.67;;;0.67;;
14698;SDS011;7439;50.804;4.602;2023-08-12T05:59:19;0.63;;;0.63;;
14698;SDS011;7439;50.804;4.602;2023-08-12T06:01:49;0.77;;;0.77;;
14698;SDS011;7439;50.804;4.602;2023-08-12T06:04:17;0.70;;;0.70;;
14698;SDS011;7439;50.804;4.602;2023-08-12T06:06:44;0.60;;;0.60;;
14698;SDS011;7439;50.804;4.602;2023-08-12T06:09:12;1.23;;;0.80;;
14698;SDS011;7439;50.804;4.602;2023-08-12T06:11:40;0.60;;;0.60;;
14698;SDS011;7439;50.804;4.602;2023-08-12T06:14:07;0.70;;;0.70;;
14698;SDS011;7439;50.804;4.602;2023-08-12T06:16:36;0.50;;;0.50;;
14698;SDS011;7439;50.804;4.602;2023-08-12T06:19:04;0.30;;;0.30;;
14698;SDS011;7439;50.804;4.602;2023-08-12T06:21:31;0.60;;;0.60;;
14698;SDS011;7439;50.804;4.602;2023-08-12T06:23:59;0.30;;;0.30;;
14698;SDS011;7439;50.804;4.602;2023-08-12T06:26:27;0.43;;;0.43;;
14698;SDS011;7439;50.804;4.602;2023-08-12T06:28:54;0.40;;;0.40;;
14698;SDS011;7439;50.804;4.602;2023-08-12T06:31:21;0.20;;;0.20;;
14698;SDS011;7439;50.804;4.602;2023-08-12T06:33:50;0.43;;;0.43;;
14698;SDS011;7439;50.804;4.602;2023-08-12T06:36:17;0.50;;;0.27;;
14698;SDS011;7439;50.804;4.602;2023-08-12T06:38:45;0.97;;;0.20;;
14698;SDS011;7439;50.804;4.602;2023-08-12T06:41:12;10.60;;;3.33;;
14698;SDS011;7439;50.804;4.602;2023-08-12T06:43:42;0.00;;;0.00;;
14698;SDS011;7439;50.804;4.602;2023-08-12T06:46:09;0.30;;;0.30;;
14698;SDS011;7439;50.804;4.602;2023-08-12T06:48:37;0.40;;;0.40;;
14698;SDS011;7439;50.804;4.602;2023-08-12T06:51:05;0.30;;;0.20;;
14698;SDS011;7439;50.804;4.602;2023-08-12T06:53:35;0.27;;;0.27;;
14698;SDS011;7439;50.804;4.602;2023-08-12T06:56:03;0.40;;;0.40;;
14698;SDS011;7439;50.804;4.602;2023-08-12T06:58:30;0.20;;;0.20;;
14698;SDS011;7439;50.804;4.602;2023-08-12T07:00:58;0.30;;;0.30;;
14698;SDS011;7439;50.804;4.602;2023-08-12T07:03:26;0.20;;;0.20;;
14698;SDS011;7439;50.804;4.602;2023-08-12T07:05:53;0.13;;;0.13;;
14698;SDS011;7439;50.804;4.602;2023-08-12T07:08:22;0.47;;;0.30;;
14698;SDS011;7439;50.804;4.602;2023-08-12T07:10:49;0.00;;;0.00;;
14698;SDS011;7439;50.804;4.602;2023-08-12T07:13:16;0.20;;;0.20;;
14698;SDS011;7439;50.804;4.602;2023-08-12T07:15:44;0.10;;;0.10;;
14698;SDS011;7439;50.804;4.602;2023-08-12T07:18:12;0.10;;;0.10;;
14698;SDS011;7439;50.804;4.602;2023-08-12T07:20:39;0.20;;;0.20;;
14698;SDS011;7439;50.804;4.602;2023-08-12T07:23:06;0.30;;;0.30;;
14698;SDS011;7439;50.804;4.602;2023-08-12T07:25:35;0.40;;;0.40;;
14698;SDS011;7439;50.804;4.602;2023-08-12T07:28:03;0.10;;;0.10;;
14698;SDS011;7439;50.804;4.602;2023-08-12T07:30:30;0.10;;;0.10;;
14698;SDS011;7439;50.804;4.602;2023-08-12T07:32:58;0.30;;;0.17;;
14698;SDS011;7439;50.804;4.602;2023-08-12T07:35:25;0.00;;;0.00;;
14698;SDS011;7439;50.804;4.602;2023-08-12T07:37:53;0.30;;;0.30;;
14698;SDS011;7439;50.804;4.602;2023-08-12T07:40:20;0.00;;;0.00;;
14698;SDS011;7439;50.804;4.602;2023-08-12T07:42:49;0.40;;;0.40;;
14698;SDS011;7439;50.804;4.602;2023-08-12T07:45:16;0.10;;;0.10;;
14698;SDS011;7439;50.804;4.602;2023-08-12T07:47:44;0.00;;;0.00;;
14698;SDS011;7439;50.804;4.602;2023-08-12T07:50:11;0.23;;;0.23;;
14698;SDS011;7439;50.804;4.602;2023-08-12T07:52:39;0.43;;;0.30;;
14698;SDS011;7439;50.804;4.602;2023-08-12T07:55:06;0.30;;;0.30;;
14698;SDS011;7439;50.804;4.602;2023-08-12T07:57:37;0.30;;;0.30;;
14698;SDS011;7439;50.804;4.602;2023-08-12T08:00:07;0.40;;;0.40;;
14698;SDS011;7439;50.804;4.602;2023-08-12T08:02:35;1.10;;;1.10;;
14698;SDS011;7439;50.804;4.602;2023-08-12T08:05:02;1.10;;;1.10;;
14698;SDS011;7439;50.804;4.602;2023-08-12T08:07:29;0.80;;;0.80;;
14698;SDS011;7439;50.804;4.602;2023-08-12T08:09:57;1.30;;;1.30;;
14698;SDS011;7439;50.804;4.602;2023-08-12T08:12:24;1.10;;;1.10;;
14698;SDS011;7439;50.804;4.602;2023-08-12T08:14:52;1.10;;;1.10;;
14698;SDS011;7439;50.804;4.602;2023-08-12T08:17:20;1.10;;;1.10;;
14698;SDS011;7439;50.804;4.602;2023-08-12T08:19:48;1.00;;;1.00;;
14698;SDS011;7439;50.804;4.602;2023-08-12T08:22:15;0.90;;;0.90;;
14698;SDS011;7439;50.804;4.602;2023-08-12T08:24:43;1.03;;;1.03;;
14698;SDS011;7439;50.804;4.602;2023-08-12T08:27:10;1.10;;;1.10;;
14698;SDS011;7439;50.804;4.602;2023-08-12T08:29:38;1.20;;;1.20;;
14698;SDS011;7439;50.804;4.602;2023-08-12T08:32:05;1.10;;;1.10;;
14698;SDS011;7439;50.804;4.602;2023-08-12T08:34:35;0.40;;;0.40;;
14698;SDS011;7439;50.804;4.602;2023-08-12T08:37:02;0.50;;;0.50;;
14698;SDS011;7439;50.804;4.602;2023-08-12T08:39:30;0.70;;;0.70;;
14698;SDS011;7439;50.804;4.602;2023-08-12T08:41:57;0.60;;;0.60;;
14698;SDS011;7439;50.804;4.602;2023-08-12T08:44:27;0.40;;;0.40;;
14698;SDS011;7439;50.804;4.602;2023-08-12T08:46:55;0.20;;;0.20;;
14698;SDS011;7439;50.804;4.602;2023-08-12T08:49:22;0.40;;;0.40;;
14698;SDS011;7439;50.804;4.602;2023-08-12T08:51:52;0.40;;;0.40;;
14698;SDS011;7439;50.804;4.602;2023-08-12T08:54:20;0.40;;;0.40;;
14698;SDS011;7439;50.804;4.602;2023-08-12T08:56:48;0.30;;;0.30;;
14698;SDS011;7439;50.804;4.602;2023-08-12T08:59:16;0.50;;;0.50;;
14698;SDS011;7439;50.804;4.602;2023-08-12T09:01:43;0.80;;;0.80;;
14698;SDS011;7439;50.804;4.602;2023-08-12T09:04:13;0.67;;;0.67;;
14698;SDS011;7439;50.804;4.602;2023-08-12T09:06:42;0.60;;;0.60;;
14698;SDS011;7439;50.804;4.602;2023-08-12T09:09:12;0.80;;;0.80;;
14698;SDS011;7439;50.804;4.602;2023-08-12T09:11:40;0.60;;;0.60;;
14698;SDS011;7439;50.804;4.602;2023-08-12T09:14:09;0.70;;;0.70;;
14698;SDS011;7439;50.804;4.602;2023-08-12T09:16:36;0.70;;;0.70;;
14698;SDS011;7439;50.804;4.602;2023-08-12T09:19:03;0.60;;;0.60;;
14698;SDS011;7439;50.804;4.602;2023-08-12T09:21:31;0.53;;;0.53;;
14698;SDS011;7439;50.804;4.602;2023-08-12T09:23:59;0.77;;;0.77;;
14698;SDS011;7439;50.804;4.602;2023-08-12T09:26:30;2.60;;;2.50;;
14698;SDS011;7439;50.804;4.602;2023-08-12T09:28:58;2.00;;;1.90;;
14698;SDS011;7439;50.804;4.602;2023-08-12T09:31:27;4.30;;;4.10;;
14698;SDS011;7439;50.804;4.602;2023-08-12T09:33:57;1.80;;;1.70;;
14698;SDS011;7439;50.804;4.602;2023-08-12T09:36:27;1.20;;;1.20;;
14698;SDS011;7439;50.804;4.602;2023-08-12T09:38:55;0.77;;;0.77;;
14698;SDS011;7439;50.804;4.602;2023-08-12T09:41:23;0.50;;;0.50;;
14698;SDS011;7439;50.804;4.602;2023-08-12T09:43:52;1.10;;;1.10;;
14698;SDS011;7439;50.804;4.602;2023-08-12T09:46:21;0.50;;;0.50;;
14698;SDS011;7439;50.804;4.602;2023-08-12T09:48:49;0.37;;;0.37;;
14698;SDS011;7439;50.804;4.602;2023-08-12T09:51:18;0.90;;;0.70;;
14698;SDS011;7439;50.804;4.602;2023-08-12T09:53:47;0.60;;;0.47;;
14698;SDS011;7439;50.804;4.602;2023-08-12T09:56:17;0.70;;;0.50;;
14698;SDS011;7439;50.804;4.602;2023-08-12T09:58:45;0.60;;;0.60;;
14698;SDS011;7439;50.804;4.602;2023-08-12T10:01:16;0.60;;;0.60;;
14698;SDS011;7439;50.804;4.602;2023-08-12T10:03:45;0.60;;;0.60;;
14698;SDS011;7439;50.804;4.602;2023-08-12T10:06:16;0.57;;;0.57;;
14698;SDS011;7439;50.804;4.602;2023-08-12T10:08:45;0.47;;;0.47;;
14698;SDS011;7439;50.804;4.602;2023-08-12T10:11:13;0.70;;;0.70;;
14698;SDS011;7439;50.804;4.602;2023-08-12T10:13:40;1.87;;;0.63;;
14698;SDS011;7439;50.804;4.602;2023-08-12T10:16:08;0.80;;;0.80;;
14698;SDS011;7439;50.804;4.602;2023-08-12T10:18:37;0.47;;;0.47;;
14698;SDS011;7439;50.804;4.602;2023-08-12T10:21:05;0.47;;;0.47;;
14698;SDS011;7439;50.804;4.602;2023-08-12T10:23:35;0.60;;;0.60;;
14698;SDS011;7439;50.804;4.602;2023-08-12T10:26:03;0.50;;;0.50;;
14698;SDS011;7439;50.804;4.602;2023-08-12T10:28:32;0.50;;;0.50;;
14698;SDS011;7439;50.804;4.602;2023-08-12T10:31:02;0.77;;;0.77;;
14698;SDS011;7439;50.804;4.602;2023-08-12T10:33:29;0.70;;;0.70;;
14698;SDS011;7439;50.804;4.602;2023-08-12T10:35:58;0.93;;;0.90;;
14698;SDS011;7439;50.804;4.602;2023-08-12T10:38:25;0.80;;;0.80;;
14698;SDS011;7439;50.804;4.602;2023-08-12T10:40:53;0.73;;;0.73;;
14698;SDS011;7439;50.804;4.602;2023-08-12T10:43:48;2.30;;;2.20;;
14698;SDS011;7439;50.804;4.602;2023-08-12T10:46:20;9.30;;;8.90;;
14698;SDS011;7439;50.804;4.602;2023-08-12T10:48:55;9.00;;;8.60;;
14698;SDS011;7439;50.804;4.602;2023-08-12T10:54:23;22.83;;;21.70;;
14698;SDS011;7439;50.804;4.602;2023-08-12T10:57:04;37.80;;;36.30;;
14698;SDS011;7439;50.804;4.602;2023-08-12T10:59:50;47.20;;;45.40;;
14698;SDS011;7439;50.804;4.602;2023-08-12T11:02:19;91.80;;;88.30;;
14698;SDS011;7439;50.804;4.602;2023-08-12T11:04:48;48.53;;;46.63;;
14698;SDS011;7439;50.804;4.602;2023-08-12T11:07:17;26.20;;;25.20;;
14698;SDS011;7439;50.804;4.602;2023-08-12T11:09:48;59.43;;;57.03;;
14698;SDS011;7439;50.804;4.602;2023-08-12T11:12:18;165.93;;;159.90;;
14698;SDS011;7439;50.804;4.602;2023-08-12T11:14:54;226.53;;;218.47;;
14698;SDS011;7439;50.804;4.602;2023-08-12T11:17:27;216.67;;;209.03;;
14698;SDS011;7439;50.804;4.602;2023-08-12T11:19:54;222.80;;;214.90;;
14698;SDS011;7439;50.804;4.602;2023-08-12T11:22:22;201.33;;;194.13;;
14698;SDS011;7439;50.804;4.602;2023-08-12T11:24:51;181.50;;;174.90;;
14698;SDS011;7439;50.804;4.602;2023-08-12T11:27:19;157.77;;;151.97;;
14698;SDS011;7439;50.804;4.602;2023-08-12T11:29:48;132.10;;;127.23;;
14698;SDS011;7439;50.804;4.602;2023-08-12T11:32:16;115.43;;;111.00;;
14698;SDS011;7439;50.804;4.602;2023-08-12T11:34:44;51.50;;;49.40;;
14698;SDS011;7439;50.804;4.602;2023-08-12T11:37:11;30.30;;;29.07;;
14698;SDS011;7439;50.804;4.602;2023-08-12T11:39:38;23.47;;;22.47;;
14698;SDS011;7439;50.804;4.602;2023-08-12T11:42:07;7.90;;;7.40;;
14698;SDS011;7439;50.804;4.602;2023-08-12T11:44:35;5.50;;;5.20;;
14698;SDS011;7439;50.804;4.602;2023-08-12T11:47:02;2.70;;;2.50;;
14698;SDS011;7439;50.804;4.602;2023-08-12T11:49:30;4.30;;;2.30;;
14698;SDS011;7439;50.804;4.602;2023-08-12T11:51:57;3.63;;;2.10;;
14698;SDS011;7439;50.804;4.602;2023-08-12T11:54:25;2.80;;;1.87;;
14698;SDS011;7439;50.804;4.602;2023-08-12T11:56:52;2.50;;;1.47;;
14698;SDS011;7439;50.804;4.602;2023-08-12T11:59:23;3.23;;;1.90;;
14698;SDS011;7439;50.804;4.602;2023-08-12T12:01:52;2.10;;;1.63;;
14698;SDS011;7439;50.804;4.602;2023-08-12T12:04:21;3.50;;;2.00;;
14698;SDS011;7439;50.804;4.602;2023-08-12T12:06:49;4.60;;;2.20;;
14698;SDS011;7439;50.804;4.602;2023-08-12T12:09:16;1.47;;;1.37;;
14698;SDS011;7439;50.804;4.602;2023-08-12T12:11:45;3.67;;;1.90;;
14698;SDS011;7439;50.804;4.602;2023-08-12T12:14:12;3.60;;;1.70;;
14698;SDS011;7439;50.804;4.602;2023-08-12T12:16:41;2.93;;;1.87;;
14698;SDS011;7439;50.804;4.602;2023-08-12T12:19:09;3.50;;;1.83;;
14698;SDS011;7439;50.804;4.602;2023-08-12T12:21:40;1.57;;;1.47;;
14698;SDS011;7439;50.804;4.602;2023-08-12T12:24:08;3.57;;;1.80;;
14698;SDS011;7439;50.804;4.602;2023-08-12T12:26:35;2.40;;;1.70;;
14698;SDS011;7439;50.804;4.602;2023-08-12T12:29:03;2.80;;;1.53;;
14698;SDS011;7439;50.804;4.602;2023-08-12T12:31:31;3.13;;;1.37;;
14698;SDS011;7439;50.804;4.602;2023-08-12T12:34:00;6.13;;;1.90;;
14698;SDS011;7439;50.804;4.602;2023-08-12T12:36:29;2.50;;;1.50;;
14698;SDS011;7439;50.804;4.602;2023-08-12T12:38:56;2.47;;;1.20;;
14698;SDS011;7439;50.804;4.602;2023-08-12T12:41:23;2.20;;;1.67;;
14698;SDS011;7439;50.804;4.602;2023-08-12T12:43:51;3.23;;;2.10;;
14698;SDS011;7439;50.804;4.602;2023-08-12T12:46:18;2.97;;;2.20;;
14698;SDS011;7439;50.804;4.602;2023-08-12T12:48:45;2.30;;;2.10;;
14698;SDS011;7439;50.804;4.602;2023-08-12T12:51:14;2.40;;;1.77;;
14698;SDS011;7439;50.804;4.602;2023-08-12T12:53:42;2.73;;;2.17;;
14698;SDS011;7439;50.804;4.602;2023-08-12T12:56:09;2.67;;;2.00;;
14698;SDS011;7439;50.804;4.602;2023-08-12T12:58:36;2.57;;;2.10;;
14698;SDS011;7439;50.804;4.602;2023-08-12T13:01:05;3.03;;;1.87;;
14698;SDS011;7439;50.804;4.602;2023-08-12T13:03:32;1.97;;;1.73;;
14698;SDS011;7439;50.804;4.602;2023-08-12T13:06:00;3.07;;;1.83;;
14698;SDS011;7439;50.804;4.602;2023-08-12T13:08:29;2.37;;;1.90;;
14698;SDS011;7439;50.804;4.602;2023-08-12T13:10:57;1.93;;;1.60;;
14698;SDS011;7439;50.804;4.602;2023-08-12T13:13:24;3.43;;;2.10;;
14698;SDS011;7439;50.804;4.602;2023-08-12T13:15:52;3.83;;;1.90;;
14698;SDS011;7439;50.804;4.602;2023-08-12T13:18:19;3.33;;;1.60;;
14698;SDS011;7439;50.804;4.602;2023-08-12T13:20:46;6.43;;;1.90;;
14698;SDS011;7439;50.804;4.602;2023-08-12T13:23:14;3.83;;;1.67;;
14698;SDS011;7439;50.804;4.602;2023-08-12T13:25:43;3.53;;;1.87;;
14698;SDS011;7439;50.804;4.602;2023-08-12T13:28:10;2.70;;;1.90;;
14698;SDS011;7439;50.804;4.602;2023-08-12T13:30:38;4.63;;;1.80;;
14698;SDS011;7439;50.804;4.602;2023-08-12T13:33:05;1.87;;;1.53;;
14698;SDS011;7439;50.804;4.602;2023-08-12T13:35:33;2.93;;;1.60;;
14698;SDS011;7439;50.804;4.602;2023-08-12T13:38:01;3.63;;;1.67;;
14698;SDS011;7439;50.804;4.602;2023-08-12T13:40:28;2.60;;;1.77;;
14698;SDS011;7439;50.804;4.602;2023-08-12T13:42:57;3.23;;;2.10;;
14698;SDS011;7439;50.804;4.602;2023-08-12T13:45:25;1.40;;;1.30;;
14698;SDS011;7439;50.804;4.602;2023-08-12T13:47:52;5.27;;;2.00;;
14698;SDS011;7439;50.804;4.602;2023-08-12T13:50:19;1.53;;;1.37;;
14698;SDS011;7439;50.804;4.602;2023-08-12T13:52:47;3.13;;;2.00;;
14698;SDS011;7439;50.804;4.602;2023-08-12T13:55:15;1.77;;;1.63;;
14698;SDS011;7439;50.804;4.602;2023-08-12T13:57:43;2.30;;;1.93;;
14698;SDS011;7439;50.804;4.602;2023-08-12T14:00:12;2.37;;;1.70;;
14698;SDS011;7439;50.804;4.602;2023-08-12T14:02:40;1.60;;;1.50;;
14698;SDS011;7439;50.804;4.602;2023-08-12T14:05:08;1.80;;;1.70;;
14698;SDS011;7439;50.804;4.602;2023-08-12T14:07:36;3.97;;;1.90;;
14698;SDS011;7439;50.804;4.602;2023-08-12T14:10:04;3.07;;;1.90;;
14698;SDS011;7439;50.804;4.602;2023-08-12T14:12:32;2.37;;;1.70;;
14698;SDS011;7439;50.804;4.602;2023-08-12T14:14:59;4.50;;;1.67;;
14698;SDS011;7439;50.804;4.602;2023-08-12T14:17:28;2.37;;;1.70;;
14698;SDS011;7439;50.804;4.602;2023-08-12T14:19:55;1.93;;;1.60;;
14698;SDS011;7439;50.804;4.602;2023-08-12T14:22:24;3.97;;;1.70;;
14698;SDS011;7439;50.804;4.602;2023-08-12T14:24:52;2.73;;;1.70;;
14698;SDS011;7439;50.804;4.602;2023-08-12T14:27:22;4.70;;;2.10;;
14698;SDS011;7439;50.804;4.602;2023-08-12T14:29:49;3.30;;;2.07;;
14698;SDS011;7439;50.804;4.602;2023-08-12T14:32:17;5.57;;;1.90;;
14698;SDS011;7439;50.804;4.602;2023-08-12T14:34:45;2.67;;;1.60;;
14698;SDS011;7439;50.804;4.602;2023-08-12T14:37:13;3.70;;;1.87;;
14698;SDS011;7439;50.804;4.602;2023-08-12T14:39:40;2.10;;;1.70;;
14698;SDS011;7439;50.804;4.602;2023-08-12T14:42:08;4.00;;;2.17;;
14698;SDS011;7439;50.804;4.602;2023-08-12T14:44:36;3.27;;;1.70;;
14698;SDS011;7439;50.804;4.602;2023-08-12T14:47:04;6.00;;;1.63;;
14698;SDS011;7439;50.804;4.602;2023-08-12T14:49:31;2.93;;;2.00;;
14698;SDS011;7439;50.804;4.602;2023-08-12T14:52:00;3.10;;;1.90;;
14698;SDS011;7439;50.804;4.602;2023-08-12T14:54:28;2.33;;;2.00;;
14698;SDS011;7439;50.804;4.602;2023-08-12T14:56:55;4.53;;;1.63;;
14698;SDS011;7439;50.804;4.602;2023-08-12T14:59:23;4.43;;;2.13;;
14698;SDS011;7439;50.804;4.602;2023-08-12T15:01:50;4.97;;;1.93;;
14698;SDS011;7439;50.804;4.602;2023-08-12T15:04:17;2.80;;;1.83;;
14698;SDS011;7439;50.804;4.602;2023-08-12T15:06:44;5.37;;;2.23;;
14698;SDS011;7439;50.804;4.602;2023-08-12T15:09:13;3.40;;;2.17;;